createdAt,value
2023-05-18T00:00:06.722Z,11.30
2023-05-18T00:02:34.220Z,11.20
2023-05-18T00:05:02.740Z,11.30
2023-05-18T00:07:34.290Z,11.10
2023-05-18T00:10:02.046Z,10.90
2023-05-18T00:12:29.312Z,10.90
2023-05-18T00:14:56.560Z,11.00
2023-05-18T00:17:23.765Z,11.00
2023-05-18T00:19:51.899Z,10.90
2023-05-18T00:22:19.111Z,10.90
2023-05-18T00:24:47.150Z,10.90
2023-05-18T00:27:15.607Z,10.90
2023-05-18T00:29:42.550Z,10.90
2023-05-18T00:32:09.579Z,10.90
2023-05-18T00:34:36.813Z,10.90
2023-05-18T00:37:03.870Z,10.80
2023-05-18T00:39:30.983Z,10.90
2023-05-18T00:41:58.335Z,10.90
2023-05-18T00:44:25.550Z,10.90
2023-05-18T00:46:52.544Z,10.90
2023-05-18T00:49:19.769Z,10.90
2023-05-18T00:51:47.321Z,10.90
2023-05-18T00:54:15.470Z,10.90
2023-05-18T00:56:42.934Z,10.90
2023-05-18T00:59:11.927Z,10.90
2023-05-18T01:01:44.003Z,10.90
2023-05-18T01:04:14.526Z,10.80
2023-05-18T01:06:42.546Z,10.80
2023-05-18T01:09:13.772Z,10.80
2023-05-18T01:12:16.709Z,10.80
2023-05-18T01:14:59.902Z,10.70
2023-05-18T01:17:44.003Z,10.80
2023-05-18T01:20:48.734Z,10.70
2023-05-18T01:23:37.515Z,10.60
2023-05-18T01:26:24.940Z,10.60
2023-05-18T01:28:53.644Z,10.70
2023-05-18T01:31:20.633Z,10.70
2023-05-18T01:33:47.572Z,10.70
2023-05-18T01:36:14.555Z,10.80
2023-05-18T01:38:44.207Z,10.70
2023-05-18T01:41:18.262Z,10.70
2023-05-18T01:44:20.952Z,10.70
2023-05-18T01:47:09.874Z,10.80
2023-05-18T01:49:46.157Z,10.70
2023-05-18T01:52:21.395Z,10.70
2023-05-18T01:54:52.616Z,10.60
2023-05-18T01:57:23.853Z,10.60
2023-05-18T01:59:51.491Z,10.60
2023-05-18T02:02:18.491Z,10.60
2023-05-18T02:04:45.441Z,10.50
2023-05-18T02:07:12.344Z,10.40
2023-05-18T02:09:39.281Z,10.50
2023-05-18T02:12:06.617Z,10.50
2023-05-18T02:14:33.965Z,10.50
2023-05-18T02:17:01.101Z,10.40
2023-05-18T02:19:28.251Z,10.40
2023-05-18T02:21:55.089Z,10.40
2023-05-18T02:24:23.411Z,10.20
2023-05-18T02:26:51.345Z,10.30
2023-05-18T02:29:18.426Z,10.30
2023-05-18T02:31:45.827Z,10.20
2023-05-18T02:34:15.481Z,10.20
2023-05-18T02:36:42.834Z,10.20
2023-05-18T02:39:10.625Z,10.20
2023-05-18T02:41:38.298Z,10.30
2023-05-18T02:44:06.349Z,10.20
2023-05-18T02:46:33.898Z,10.20
2023-05-18T02:49:01.236Z,10.30
2023-05-18T02:51:28.220Z,10.30
2023-05-18T02:53:55.097Z,10.30
2023-05-18T02:56:22.003Z,10.10
2023-05-18T02:58:48.928Z,10.10
2023-05-18T03:01:15.872Z,10.10
2023-05-18T03:03:43.369Z,10.00
2023-05-18T03:06:10.990Z,10.00
2023-05-18T03:08:37.940Z,10.00
2023-05-18T03:11:05.314Z,10.00
2023-05-18T03:13:32.467Z,10.00
2023-05-18T03:15:59.411Z,9.90
2023-05-18T03:18:26.372Z,9.90
2023-05-18T03:20:53.690Z,9.90
2023-05-18T03:23:20.894Z,10.00
2023-05-18T03:25:53.666Z,9.90
2023-05-18T03:28:21.492Z,10.00
2023-05-18T03:30:51.941Z,9.90
2023-05-18T03:33:18.972Z,9.90
2023-05-18T03:35:47.759Z,9.90
2023-05-18T03:38:15.949Z,9.80
2023-05-18T03:40:42.939Z,9.90
2023-05-18T03:43:09.858Z,9.90
2023-05-18T03:45:36.822Z,9.90
2023-05-18T03:48:03.965Z,9.90
2023-05-18T03:50:31.581Z,9.90
2023-05-18T03:52:58.527Z,9.80
2023-05-18T03:55:26.333Z,9.90
2023-05-18T03:57:53.913Z,9.90
2023-05-18T04:00:22.146Z,9.90
2023-05-18T04:02:51.966Z,9.90
2023-05-18T04:05:19.401Z,9.90
2023-05-18T04:07:46.922Z,10.00
2023-05-18T04:10:14.807Z,9.90
2023-05-18T04:12:41.823Z,9.90
2023-05-18T04:15:09.548Z,9.90
2023-05-18T04:17:36.686Z,10.00
2023-05-18T04:20:13.184Z,10.00
2023-05-18T04:22:49.307Z,9.90
2023-05-18T04:25:16.977Z,10.00
2023-05-18T04:27:50.444Z,10.10
2023-05-18T04:30:18.967Z,10.20
2023-05-18T04:32:46.152Z,10.10
2023-05-18T04:35:13.671Z,10.10
2023-05-18T04:37:41.326Z,10.10
2023-05-18T04:40:12.789Z,10.10
2023-05-18T04:42:45.851Z,10.10
2023-05-18T04:45:23.005Z,10.10
2023-05-18T04:47:54.095Z,10.10
2023-05-18T04:50:25.788Z,10.00
2023-05-18T04:52:54.155Z,10.00
2023-05-18T04:55:27.645Z,9.90
2023-05-18T04:57:56.921Z,9.90
2023-05-18T05:00:26.763Z,10.00
2023-05-18T05:02:54.994Z,10.00
2023-05-18T05:05:23.333Z,10.00
2023-05-18T05:07:54.264Z,9.90
2023-05-18T05:10:21.623Z,9.90
2023-05-18T05:12:50.594Z,10.00
2023-05-18T05:15:18.567Z,10.00
2023-05-18T05:17:49.005Z,10.10
2023-05-18T05:20:17.023Z,10.10
2023-05-18T05:22:44.458Z,10.10
2023-05-18T05:25:11.531Z,10.10
2023-05-18T05:27:38.816Z,10.00
2023-05-18T05:30:06.684Z,10.10
2023-05-18T05:32:35.032Z,10.00
2023-05-18T05:35:02.450Z,10.10
2023-05-18T05:37:29.539Z,10.10
2023-05-18T05:39:56.734Z,10.30
2023-05-18T05:42:25.661Z,10.20
2023-05-18T05:44:52.596Z,10.20
2023-05-18T05:47:19.562Z,10.30
2023-05-18T05:49:46.575Z,10.20
2023-05-18T05:52:13.898Z,10.20
2023-05-18T05:54:41.829Z,10.20
2023-05-18T05:57:08.792Z,10.20
2023-05-18T05:59:35.873Z,10.20
2023-05-18T06:02:02.935Z,10.20
2023-05-18T06:04:30.417Z,10.30
2023-05-18T06:06:57.634Z,10.30
2023-05-18T06:09:24.568Z,10.30
2023-05-18T06:11:52.933Z,10.30
2023-05-18T06:14:21.292Z,10.20
2023-05-18T06:16:48.708Z,10.20
2023-05-18T06:19:15.768Z,10.30
2023-05-18T06:21:43.091Z,10.30
2023-05-18T06:24:10.135Z,10.40
2023-05-18T06:26:37.027Z,10.40
2023-05-18T06:29:05.629Z,10.40
2023-05-18T06:31:32.798Z,10.50
2023-05-18T06:34:00.175Z,10.50
2023-05-18T06:36:27.073Z,10.50
2023-05-18T06:38:53.961Z,10.60
2023-05-18T06:41:22.273Z,10.70
2023-05-18T06:43:49.617Z,10.80
2023-05-18T06:46:24.308Z,10.70
2023-05-18T06:48:51.847Z,10.70
2023-05-18T06:51:18.898Z,10.70
2023-05-18T06:53:46.275Z,10.60
2023-05-18T06:56:13.315Z,10.60
2023-05-18T06:58:41.629Z,10.70
2023-05-18T07:01:09.244Z,10.70
2023-05-18T07:03:37.156Z,10.70
2023-05-18T07:06:04.953Z,10.70
2023-05-18T07:08:32.346Z,10.80
2023-05-18T07:11:02.365Z,10.90
2023-05-18T07:13:30.183Z,11.00
2023-05-18T07:15:57.909Z,11.00
2023-05-18T07:18:24.954Z,11.20
2023-05-18T07:20:52.149Z,11.10
2023-05-18T07:23:19.695Z,11.20
2023-05-18T07:25:46.937Z,11.00
2023-05-18T07:28:13.808Z,10.90
2023-05-18T07:30:41.247Z,11.00
2023-05-18T07:33:08.265Z,11.10
2023-05-18T07:35:36.629Z,11.30
2023-05-18T07:38:03.569Z,11.30
2023-05-18T07:40:30.545Z,11.40
2023-05-18T07:42:57.406Z,11.50
2023-05-18T07:45:24.357Z,11.50
2023-05-18T07:47:51.489Z,11.50
2023-05-18T07:50:18.516Z,11.40
2023-05-18T07:52:45.563Z,11.30
2023-05-18T07:55:12.912Z,11.40
2023-05-18T07:57:40.444Z,11.50
2023-05-18T08:00:09.875Z,11.50
2023-05-18T08:02:37.860Z,11.60
2023-05-18T08:05:05.954Z,11.70
2023-05-18T08:07:33.526Z,11.70
2023-05-18T08:10:00.653Z,11.50
2023-05-18T08:12:27.717Z,11.60
2023-05-18T08:14:54.758Z,11.60
2023-05-18T08:17:22.217Z,11.40
2023-05-18T08:19:49.398Z,11.30
2023-05-18T08:22:16.375Z,11.40
2023-05-18T08:24:45.075Z,11.50
2023-05-18T08:27:12.270Z,11.50
2023-05-18T08:29:39.237Z,11.80
2023-05-18T08:32:08.164Z,11.60
2023-05-18T08:34:36.152Z,11.70
2023-05-18T08:37:03.439Z,11.70
2023-05-18T08:39:32.200Z,11.70
2023-05-18T08:42:09.004Z,11.70
2023-05-18T08:44:45.850Z,11.60
2023-05-18T08:47:16.343Z,11.60
2023-05-18T08:49:44.375Z,11.70
2023-05-18T08:52:17.858Z,11.70
2023-05-18T08:54:45.044Z,11.70
2023-05-18T08:57:12.984Z,11.80
2023-05-18T08:59:44.593Z,12.00
2023-05-18T09:02:12.462Z,11.90
2023-05-18T09:04:42.691Z,11.80
2023-05-18T09:07:11.134Z,11.70
2023-05-18T09:09:39.789Z,11.70
2023-05-18T09:12:07.875Z,11.70
2023-05-18T09:14:35.335Z,11.90
2023-05-18T09:17:02.407Z,11.90
2023-05-18T09:19:29.536Z,11.90
2023-05-18T09:21:56.618Z,11.70
2023-05-18T09:24:25.055Z,11.80
2023-05-18T09:26:52.120Z,11.80
2023-05-18T09:29:21.014Z,11.90
2023-05-18T09:31:48.773Z,12.00
2023-05-18T09:34:16.132Z,12.10
2023-05-18T09:36:49.474Z,12.00
2023-05-18T09:39:16.439Z,12.10
2023-05-18T09:41:43.991Z,12.10
2023-05-18T09:44:12.599Z,12.20
2023-05-18T09:46:40.643Z,12.10
2023-05-18T09:49:08.518Z,12.10
2023-05-18T09:51:39.066Z,12.30
2023-05-18T09:54:08.818Z,12.40
2023-05-18T09:56:37.552Z,12.30
2023-05-18T09:59:12.603Z,12.30
2023-05-18T10:02:02.977Z,11.90
2023-05-18T10:04:38.610Z,11.80
2023-05-18T10:07:13.222Z,11.50
2023-05-18T10:09:45.323Z,11.40
2023-05-18T10:12:17.633Z,11.40
2023-05-18T10:14:46.188Z,11.30
2023-05-18T10:17:16.707Z,11.30
2023-05-18T10:19:46.012Z,11.30
2023-05-18T10:22:16.832Z,11.30
2023-05-18T10:24:46.393Z,11.40
2023-05-18T10:27:17.779Z,11.50
2023-05-18T10:29:47.757Z,11.50
2023-05-18T10:32:15.478Z,11.60
2023-05-18T10:34:44.320Z,11.70
2023-05-18T10:37:14.313Z,11.60
2023-05-18T10:39:45.811Z,11.80
2023-05-18T10:42:16.358Z,11.80
2023-05-18T10:44:45.306Z,11.90
2023-05-18T10:47:14.609Z,11.80
2023-05-18T10:49:50.147Z,11.80
2023-05-18T10:52:18.252Z,11.80
2023-05-18T10:54:47.055Z,11.80
2023-05-18T10:57:19.974Z,11.90
2023-05-18T10:59:48.487Z,11.90
2023-05-18T11:02:18.520Z,11.90
2023-05-18T11:04:51.821Z,11.90
2023-05-18T11:07:21.769Z,11.80
2023-05-18T11:09:49.838Z,11.80
2023-05-18T11:12:20.795Z,11.90
2023-05-18T11:14:52.712Z,11.80
2023-05-18T11:17:28.881Z,11.90
2023-05-18T11:20:12.894Z,12.00
2023-05-18T11:22:51.782Z,12.10
2023-05-18T11:25:24.540Z,12.10
2023-05-18T11:27:59.199Z,12.00
2023-05-18T11:30:50.382Z,12.00
2023-05-18T11:33:34.213Z,12.00
2023-05-18T11:36:04.060Z,11.90
2023-05-18T11:38:50.296Z,11.90
2023-05-18T11:41:35.040Z,11.80
2023-05-18T11:44:06.957Z,12.00
2023-05-18T11:46:37.101Z,12.20
2023-05-18T11:49:07.489Z,12.30
2023-05-18T11:52:01.200Z,12.20
2023-05-18T11:54:28.877Z,12.30
2023-05-18T11:56:56.402Z,12.20
2023-05-18T11:59:41.511Z,12.10
2023-05-18T12:02:13.027Z,12.10
2023-05-18T12:04:46.831Z,12.00
2023-05-18T12:07:14.466Z,12.10
2023-05-18T12:09:43.272Z,12.10
2023-05-18T12:12:14.013Z,12.00
2023-05-18T12:14:46.779Z,12.00
2023-05-18T12:17:14.128Z,12.00
2023-05-18T12:19:46.979Z,12.00
2023-05-18T12:22:18.046Z,12.00
2023-05-18T12:24:45.112Z,12.20
2023-05-18T12:27:14.428Z,12.30
2023-05-18T12:29:42.830Z,12.30
2023-05-18T12:32:11.487Z,12.40
2023-05-18T12:34:39.592Z,12.40
2023-05-18T12:37:10.016Z,12.10
2023-05-18T12:39:38.058Z,12.10
2023-05-18T12:42:15.355Z,12.30
2023-05-18T12:44:44.707Z,12.40
2023-05-18T12:47:21.814Z,12.50
2023-05-18T12:49:50.286Z,12.40
2023-05-18T12:52:17.279Z,12.30
2023-05-18T12:54:55.578Z,12.40
2023-05-18T12:57:26.556Z,12.40
2023-05-18T12:59:54.856Z,12.40
2023-05-18T13:02:30.351Z,12.50
2023-05-18T13:05:09.708Z,12.60
2023-05-18T13:07:46.372Z,12.70
2023-05-18T13:10:17.387Z,12.80
2023-05-18T13:12:46.423Z,12.90
2023-05-18T13:15:15.051Z,13.00
2023-05-18T13:18:03.556Z,13.10
2023-05-18T13:20:38.887Z,13.00
2023-05-18T13:23:14.579Z,13.00
2023-05-18T13:25:42.203Z,13.00
2023-05-18T13:28:11.249Z,12.80
2023-05-18T13:30:41.793Z,12.70
2023-05-18T13:33:09.439Z,12.90
2023-05-18T13:35:37.247Z,13.00
2023-05-18T13:38:04.318Z,13.20
2023-05-18T13:40:31.434Z,13.50
2023-05-18T13:42:58.343Z,13.60
2023-05-18T13:45:25.290Z,13.70
2023-05-18T13:47:53.708Z,13.90
2023-05-18T13:50:21.355Z,13.90
2023-05-18T13:52:48.758Z,14.10
2023-05-18T13:55:26.723Z,13.60
2023-05-18T13:57:53.738Z,14.10
2023-05-18T14:00:21.564Z,14.20
2023-05-18T14:02:48.998Z,14.20
2023-05-18T14:05:16.483Z,14.10
2023-05-18T14:07:44.291Z,14.20
2023-05-18T14:10:12.963Z,14.00
2023-05-18T14:12:42.360Z,13.90
2023-05-18T14:15:10.305Z,13.80
2023-05-18T14:17:38.269Z,13.70
2023-05-18T14:20:07.126Z,13.60
2023-05-18T14:22:34.311Z,13.50
2023-05-18T14:25:01.274Z,13.30
2023-05-18T14:27:29.335Z,13.30
2023-05-18T14:29:56.649Z,13.20
2023-05-18T14:32:23.855Z,13.20
2023-05-18T14:34:55.372Z,13.30
2023-05-18T14:37:22.512Z,13.30
2023-05-18T14:39:49.577Z,13.30
2023-05-18T14:42:17.412Z,13.20
2023-05-18T14:44:44.800Z,13.30
2023-05-18T14:47:11.805Z,13.40
2023-05-18T14:49:38.871Z,13.50
2023-05-18T14:52:06.270Z,13.80
2023-05-18T14:54:33.344Z,13.80
2023-05-18T14:57:01.314Z,14.00
2023-05-18T14:59:28.280Z,14.20
2023-05-18T15:01:55.617Z,14.30
2023-05-18T15:04:23.710Z,14.30
2023-05-18T15:06:51.231Z,14.10
2023-05-18T15:09:18.111Z,14.00
2023-05-18T15:11:46.522Z,14.10
2023-05-18T15:14:13.930Z,14.00
2023-05-18T15:16:41.176Z,14.00
2023-05-18T15:19:08.252Z,13.80
2023-05-18T15:21:35.327Z,13.60
2023-05-18T15:24:02.644Z,13.40
2023-05-18T15:26:29.778Z,13.40
2023-05-18T15:28:56.765Z,13.50
2023-05-18T15:31:23.743Z,13.50
2023-05-18T15:33:50.755Z,13.40
2023-05-18T15:36:17.806Z,13.30
2023-05-18T15:38:45.476Z,13.30
2023-05-18T15:41:12.469Z,13.30
2023-05-18T15:43:40.833Z,13.10
2023-05-18T15:46:08.085Z,13.10
2023-05-18T15:48:35.545Z,13.10
2023-05-18T15:51:02.480Z,13.10
2023-05-18T15:53:29.388Z,13.00
2023-05-18T15:55:59.081Z,12.70
2023-05-18T15:58:26.876Z,12.90
2023-05-18T16:00:56.458Z,12.90
2023-05-18T16:03:23.514Z,12.90
2023-05-18T16:05:50.664Z,12.90
2023-05-18T16:08:17.619Z,13.10
2023-05-18T16:10:44.542Z,13.00
2023-05-18T16:16:19.759Z,12.90
2023-05-18T16:18:47.170Z,12.80
2023-05-18T16:21:14.216Z,12.80
2023-05-18T16:23:41.722Z,12.90
2023-05-18T16:26:30.193Z,12.90
2023-05-18T16:28:57.108Z,12.90
2023-05-18T16:31:26.358Z,12.90
2023-05-18T16:33:53.365Z,12.80
2023-05-18T16:36:21.001Z,12.90
2023-05-18T16:38:55.182Z,12.80
2023-05-18T16:41:22.565Z,12.80
2023-05-18T16:43:51.903Z,12.90
2023-05-18T16:46:20.083Z,12.90
2023-05-18T16:48:47.064Z,12.90
2023-05-18T16:51:14.023Z,12.90
2023-05-18T16:53:41.123Z,12.80
2023-05-18T16:56:08.040Z,12.90
2023-05-18T16:58:35.059Z,12.90
2023-05-18T17:01:02.127Z,12.80
2023-05-18T17:03:29.509Z,12.80
2023-05-18T17:05:56.671Z,12.70
2023-05-18T17:08:24.157Z,12.70
2023-05-18T17:10:51.074Z,12.70
2023-05-18T17:13:18.088Z,12.70
2023-05-18T17:15:45.186Z,12.70
2023-05-18T17:18:12.269Z,12.50
2023-05-18T17:20:39.325Z,12.50
2023-05-18T17:23:06.310Z,12.50
2023-05-18T17:25:33.680Z,12.50
2023-05-18T17:28:00.617Z,12.50
2023-05-18T17:30:27.939Z,12.50
2023-05-18T17:32:55.974Z,12.50
2023-05-18T17:35:22.992Z,12.40
2023-05-18T17:37:50.362Z,12.40
2023-05-18T17:40:17.299Z,12.30
2023-05-18T17:42:44.172Z,12.40
2023-05-18T17:45:11.355Z,12.30
2023-05-18T17:47:38.841Z,12.20
2023-05-18T17:50:06.366Z,12.20
2023-05-18T17:52:33.357Z,12.20
2023-05-18T17:55:00.561Z,12.20
2023-05-18T17:57:28.104Z,12.20
2023-05-18T17:59:54.989Z,12.10
2023-05-18T18:02:22.249Z,12.20
2023-05-18T18:04:49.664Z,12.20
2023-05-18T18:07:16.726Z,12.20
2023-05-18T18:09:43.702Z,12.20
2023-05-18T18:12:11.127Z,12.20
2023-05-18T18:14:38.068Z,12.20
2023-05-18T18:17:05.242Z,12.20
2023-05-18T18:19:32.392Z,12.20
2023-05-18T18:21:59.369Z,12.20
2023-05-18T18:24:26.757Z,12.20
2023-05-18T18:26:55.758Z,12.20
2023-05-18T18:29:30.536Z,12.20
2023-05-18T18:31:57.955Z,11.70
2023-05-18T18:34:24.825Z,12.00
2023-05-18T18:36:51.799Z,11.90
2023-05-18T18:39:18.655Z,11.90
2023-05-18T18:41:46.005Z,11.70
2023-05-18T18:44:20.383Z,11.70
2023-05-18T18:46:47.906Z,11.80
2023-05-18T18:49:14.999Z,11.80
2023-05-18T18:51:42.595Z,11.80
2023-05-18T18:54:12.951Z,11.80
2023-05-18T18:56:40.366Z,11.70
2023-05-18T18:59:07.667Z,11.70
2023-05-18T19:01:38.567Z,11.80
2023-05-18T19:04:05.758Z,11.80
2023-05-18T19:06:33.553Z,11.70
2023-05-18T19:09:00.987Z,11.70
2023-05-18T19:11:28.034Z,11.70
2023-05-18T19:13:56.442Z,11.70
2023-05-18T19:16:33.070Z,11.80
2023-05-18T19:19:00.565Z,11.70
2023-05-18T19:21:29.196Z,11.80
2023-05-18T19:23:56.440Z,11.80
2023-05-18T19:26:24.072Z,11.80
2023-05-18T19:28:51.381Z,11.90
2023-05-18T19:31:18.334Z,11.90
2023-05-18T19:33:45.366Z,11.80
2023-05-18T19:36:13.755Z,11.80
2023-05-18T19:38:40.711Z,11.90
2023-05-18T19:41:07.733Z,11.90
2023-05-18T19:43:34.695Z,11.80
2023-05-18T19:46:02.224Z,11.80
2023-05-18T19:48:31.170Z,11.90
2023-05-18T19:50:58.517Z,11.90
2023-05-18T19:53:25.485Z,12.00
2023-05-18T19:55:52.360Z,12.00
2023-05-18T19:58:19.686Z,11.90
2023-05-18T20:00:48.518Z,11.90
2023-05-18T20:03:45.520Z,11.90
2023-05-18T20:06:12.662Z,12.00
2023-05-18T20:08:40.057Z,12.00
2023-05-18T20:11:06.967Z,12.10
2023-05-18T20:13:34.014Z,12.10
2023-05-18T20:16:05.876Z,12.00
2023-05-18T20:18:35.047Z,12.00
2023-05-18T20:21:02.181Z,12.00
2023-05-18T20:23:29.403Z,12.00
2023-05-18T20:25:57.182Z,12.00
2023-05-18T20:28:26.384Z,12.10
2023-05-18T20:30:53.705Z,12.10
2023-05-18T20:33:21.038Z,12.10
2023-05-18T20:35:49.677Z,12.10
2023-05-18T20:38:16.906Z,12.10
2023-05-18T20:40:44.276Z,12.30
2023-05-18T20:43:17.724Z,12.20
2023-05-18T20:45:49.466Z,12.20
2023-05-18T20:48:24.547Z,12.10
2023-05-18T20:50:54.945Z,12.10
2023-05-18T20:53:22.252Z,12.10
2023-05-18T20:55:50.445Z,12.10
2023-05-18T20:58:18.650Z,12.10
2023-05-18T21:00:46.737Z,12.10
2023-05-18T21:03:14.743Z,12.00
2023-05-18T21:05:43.482Z,12.00
2023-05-18T21:08:10.601Z,12.00
2023-05-18T21:10:37.912Z,12.00
2023-05-18T21:13:04.961Z,12.00
2023-05-18T21:15:36.417Z,12.20
2023-05-18T21:18:04.219Z,12.10
2023-05-18T21:20:32.045Z,12.10
2023-05-18T21:22:59.237Z,12.00
2023-05-18T21:25:26.309Z,12.00
2023-05-18T21:27:53.225Z,12.00
2023-05-18T21:30:20.219Z,12.00
2023-05-18T21:32:49.109Z,12.00
2023-05-18T21:35:17.331Z,11.90
2023-05-18T21:37:44.737Z,11.90
2023-05-18T21:40:12.198Z,12.00
2023-05-18T21:42:45.087Z,12.00
2023-05-18T21:45:13.519Z,12.00
2023-05-18T21:47:40.595Z,11.90
2023-05-18T21:50:08.011Z,11.90
2023-05-18T21:52:35.448Z,12.00
2023-05-18T21:55:02.482Z,12.20
2023-05-18T21:57:29.429Z,12.20
2023-05-18T21:59:56.403Z,12.20
2023-05-18T22:02:23.372Z,12.10
2023-05-18T22:04:52.803Z,12.00
2023-05-18T22:07:23.143Z,12.00
2023-05-18T22:09:52.069Z,11.90
2023-05-18T22:12:19.509Z,11.90
2023-05-18T22:14:46.397Z,11.90
2023-05-18T22:17:13.796Z,11.90
2023-05-18T22:19:42.231Z,11.90
2023-05-18T22:22:13.881Z,11.90
2023-05-18T22:24:45.084Z,11.90
2023-05-18T22:27:12.078Z,11.90
2023-05-18T22:29:39.015Z,12.00
2023-05-18T22:32:06.540Z,12.00
2023-05-18T22:34:33.875Z,12.00
2023-05-18T22:37:00.922Z,11.90
2023-05-18T22:39:27.855Z,12.00
2023-05-18T22:41:54.750Z,12.00
2023-05-18T22:44:21.683Z,12.00
2023-05-18T22:46:48.814Z,12.00
2023-05-18T22:49:16.783Z,12.00
2023-05-18T22:51:45.804Z,12.00
2023-05-18T22:54:15.800Z,12.10
2023-05-18T22:56:43.092Z,12.00
2023-05-18T22:59:11.859Z,12.00
2023-05-18T23:01:39.423Z,12.10
2023-05-18T23:04:07.122Z,12.00
2023-05-18T23:06:34.704Z,12.00
2023-05-18T23:09:03.317Z,12.00
2023-05-18T23:11:31.024Z,12.10
2023-05-18T23:14:02.599Z,12.00
2023-05-18T23:16:29.882Z,12.10
2023-05-18T23:18:58.803Z,12.00
2023-05-18T23:21:26.486Z,12.00
2023-05-18T23:23:54.549Z,12.00
2023-05-18T23:26:22.708Z,12.00
2023-05-18T23:28:50.068Z,12.00
2023-05-18T23:31:17.668Z,12.00
2023-05-18T23:33:45.031Z,12.00
2023-05-18T23:36:12.780Z,11.90
2023-05-18T23:38:41.000Z,12.00
2023-05-18T23:41:08.661Z,12.00
2023-05-18T23:43:35.984Z,12.00
2023-05-18T23:46:05.051Z,12.00
2023-05-18T23:48:32.779Z,12.00
2023-05-18T23:51:02.390Z,12.00
2023-05-18T23:53:30.510Z,11.90
2023-05-18T23:55:59.227Z,12.00
2023-05-18T23:58:31.772Z,12.00
